M/V Grande Caribe — WCX4495 — position and weather

sailwx.info

Track history (hours):
 
Tides and Currents Weather Stations Pressure Air Temp Water Temp Dewpoint Dewpoint Depression Visibility Wind Speed Wind Dir Waves Ship Positions

M/V Grande Caribe

Owner: AMERICAN CANADIAN CARIBBEAN LINE INC, WARREN, RI. More information available from US FCC via Universal Licensing System and Coast Guard Vessel Documentation Center.

Last reported at 2015-Jun-30 11:28 UTC. Time now 2015-Jul-05 13:16 UTC.
Position N 45°39' W 084°11'.

Length 55 m; draft 2.1 m.

Type: Ship. MMSI: 369023000.

Date/timePositionNaut miles runAvg speedWind from/ knotsBaromVisibWave heightAir tempDewpointWater temp
2015-Jun-30 11:28N 45°39' W 084°11'910.1
2015-Jun-30 10:33N 45°42' W 084°23'1010.0
2015-Jun-30 09:33N 45°46' W 084°36'5 0.5
2015-Jun-29 23:23N 45°51' W 084°37'0 0.0
2015-Jun-29 22:32N 45°51' W 084°37'0 0.0
2015-Jun-29 21:33N 45°51' W 084°37'4 4.4
2015-Jun-29 20:33N 45°52' W 084°43'2 2.1
2015-Jun-29 19:33N 45°51' W 084°40'2 2.3
2015-Jun-29 18:33N 45°51' W 084°37'0 0.0
2015-Jun-29 17:33N 45°51' W 084°37'0 0.0
2015-Jun-29 16:33N 45°51' W 084°37'0 0.0
2015-Jun-29 15:33N 45°51' W 084°37'2 2.3
2015-Jun-29 14:33N 45°50' W 084°40'1010.4
2015-Jun-29 13:33N 45°50' W 084°55'1110.6
2015-Jun-29 12:33N 45°51' W 085°10'1110.5
2015-Jun-29 11:33N 45°53' W 085°25'1010.2
2015-Jun-29 10:33N 45°52' W 085°39'1110.7
2015-Jun-29 09:33N 45°48' W 085°53'1110.6
2015-Jun-29 08:33N 45°41' W 086°05'1010.4
2015-Jun-29 07:33N 45°34' W 086°16'1010.4
2015-Jun-29 06:33N 45°26' W 086°26'1010.3
2015-Jun-29 05:33N 45°19' W 086°37'1310.1
2015-Jun-29 04:18N 45°09' W 086°47'1110.2
2015-Jun-29 03:16N 44°60' W 086°55'  
2015-Jun-24 10:08N 45°11' W 085°46'610.1
2015-Jun-24 09:31N 45°16' W 085°40'1010.3
2015-Jun-24 08:33N 45°24' W 085°32'1010.4
2015-Jun-24 07:33N 45°32' W 085°23'1010.4
2015-Jun-24 06:33N 45°41' W 085°14'1010.0
2015-Jun-24 05:33N 45°50' W 085°07'1010.2
2015-Jun-24 04:33N 45°49' W 084°53'10 9.9
2015-Jun-24 03:33N 45°50' W 084°39'1 0.6
2015-Jun-24 01:11N 45°51' W 084°37'0 0.0
2015-Jun-24 00:31N 45°51' W 084°37'0 0.0
2015-Jun-23 23:26N 45°51' W 084°37'0 0.0
2015-Jun-23 22:33N 45°51' W 084°37'0 0.0
2015-Jun-23 21:30N 45°51' W 084°37'0 0.0
2015-Jun-23 20:33N 45°51' W 084°37'0 0.0
2015-Jun-23 19:33N 45°51' W 084°37'0 0.0
2015-Jun-23 19:03N 45°51' W 084°37'0 0.0
2015-Jun-22 19:33N 45°51' W 084°37'0 0.0
2015-Jun-22 18:33N 45°51' W 084°37'0 0.0
2015-Jun-22 17:33N 45°51' W 084°37'0 0.2
2015-Jun-22 16:34N 45°51' W 084°37'4 2.0
2015-Jun-22 14:33N 45°52' W 084°42'1010.6
2015-Jun-22 13:33N 45°44' W 084°32'10 9.9
2015-Jun-22 12:33N 45°41' W 084°18'  
Track history (hours):
 
Tides and Currents Weather Stations Pressure Air Temp Water Temp Dewpoint Dewpoint Depression Visibility Wind Speed Wind Dir Waves Ship Positions

M/V Grande Caribe

Owner: AMERICAN CANADIAN CARIBBEAN LINE INC, WARREN, RI. More information available from US FCC via Universal Licensing System and Coast Guard Vessel Documentation Center.

Last reported at 2015-Jun-30 11:28 UTC. Time now 2015-Jul-05 13:16 UTC.
Position N 45°39' W 084°11'.

Length 55 m; draft 2.1 m.

Type: Ship. MMSI: 369023000.

Date/timePositionNaut miles runAvg speedWind from/ knotsBaromVisibWave heightAir tempDewpointWater temp
2015-Jun-30 11:28N 45°39' W 084°11'910.1
2015-Jun-30 10:33N 45°42' W 084°23'1010.0
2015-Jun-30 09:33N 45°46' W 084°36'5 0.5
2015-Jun-29 23:23N 45°51' W 084°37'0 0.0
2015-Jun-29 22:32N 45°51' W 084°37'0 0.0
2015-Jun-29 21:33N 45°51' W 084°37'4 4.4
2015-Jun-29 20:33N 45°52' W 084°43'2 2.1
2015-Jun-29 19:33N 45°51' W 084°40'2 2.3
2015-Jun-29 18:33N 45°51' W 084°37'0 0.0
2015-Jun-29 17:33N 45°51' W 084°37'0 0.0
2015-Jun-29 16:33N 45°51' W 084°37'0 0.0
2015-Jun-29 15:33N 45°51' W 084°37'2 2.3
2015-Jun-29 14:33N 45°50' W 084°40'1010.4
2015-Jun-29 13:33N 45°50' W 084°55'1110.6
2015-Jun-29 12:33N 45°51' W 085°10'1110.5
2015-Jun-29 11:33N 45°53' W 085°25'1010.2
2015-Jun-29 10:33N 45°52' W 085°39'1110.7
2015-Jun-29 09:33N 45°48' W 085°53'1110.6
2015-Jun-29 08:33N 45°41' W 086°05'1010.4
2015-Jun-29 07:33N 45°34' W 086°16'1010.4
2015-Jun-29 06:33N 45°26' W 086°26'1010.3
2015-Jun-29 05:33N 45°19' W 086°37'1310.1
2015-Jun-29 04:18N 45°09' W 086°47'1110.2
2015-Jun-29 03:16N 44°60' W 086°55'  
2015-Jun-24 10:08N 45°11' W 085°46'610.1
2015-Jun-24 09:31N 45°16' W 085°40'1010.3
2015-Jun-24 08:33N 45°24' W 085°32'1010.4
2015-Jun-24 07:33N 45°32' W 085°23'1010.4
2015-Jun-24 06:33N 45°41' W 085°14'1010.0
2015-Jun-24 05:33N 45°50' W 085°07'1010.2
2015-Jun-24 04:33N 45°49' W 084°53'10 9.9
2015-Jun-24 03:33N 45°50' W 084°39'1 0.6
2015-Jun-24 01:11N 45°51' W 084°37'0 0.0
2015-Jun-24 00:31N 45°51' W 084°37'0 0.0
2015-Jun-23 23:26N 45°51' W 084°37'0 0.0
2015-Jun-23 22:33N 45°51' W 084°37'0 0.0
2015-Jun-23 21:30N 45°51' W 084°37'0 0.0
2015-Jun-23 20:33N 45°51' W 084°37'0 0.0
2015-Jun-23 19:33N 45°51' W 084°37'0 0.0
2015-Jun-23 19:03N 45°51' W 084°37'0 0.0
2015-Jun-22 19:33N 45°51' W 084°37'0 0.0
2015-Jun-22 18:33N 45°51' W 084°37'0 0.0
2015-Jun-22 17:33N 45°51' W 084°37'0 0.2
2015-Jun-22 16:34N 45°51' W 084°37'4 2.0
2015-Jun-22 14:33N 45°52' W 084°42'1010.6
2015-Jun-22 13:33N 45°44' W 084°32'10 9.9
2015-Jun-22 12:33N 45°41' W 084°18'  

Dump ship's entire track history